sensor_id;sensor_type;location;lat;lon;timestamp;pressure;altitude;pressure_sealevel;temperature
51693;BMP280;37777;53.066;21.638;2023-08-20T00:00:49;100912.41;;;21.29
51693;BMP280;37777;53.066;21.638;2023-08-20T00:07:51;100923.66;;;21.42
51693;BMP280;37777;53.066;21.638;2023-08-20T00:15:03;100916.84;;;21.54
51693;BMP280;37777;53.066;21.638;2023-08-20T00:22:09;100922.84;;;21.45
51693;BMP280;37777;53.066;21.638;2023-08-20T00:29:11;100918.19;;;21.38
51693;BMP280;37777;53.066;21.638;2023-08-20T00:36:13;100912.00;;;21.31
51693;BMP280;37777;53.066;21.638;2023-08-20T00:43:15;100910.94;;;21.17
51693;BMP280;37777;53.066;21.638;2023-08-20T00:50:18;100911.25;;;21.23
51693;BMP280;37777;53.066;21.638;2023-08-20T00:57:21;100912.97;;;21.13
51693;BMP280;37777;53.066;21.638;2023-08-20T01:04:24;100916.06;;;21.15
51693;BMP280;37777;53.066;21.638;2023-08-20T01:11:31;100915.28;;;21.15
51693;BMP280;37777;53.066;21.638;2023-08-20T01:18:35;100914.34;;;20.91
51693;BMP280;37777;53.066;21.638;2023-08-20T01:26:20;100917.84;;;20.95
51693;BMP280;37777;53.066;21.638;2023-08-20T01:33:22;100914.03;;;20.85
51693;BMP280;37777;53.066;21.638;2023-08-20T01:40:25;100917.22;;;20.76
51693;BMP280;37777;53.066;21.638;2023-08-20T01:47:28;100911.31;;;20.74
51693;BMP280;37777;53.066;21.638;2023-08-20T01:54:30;100923.88;;;20.79
51693;BMP280;37777;53.066;21.638;2023-08-20T02:01:32;100922.72;;;20.73
51693;BMP280;37777;53.066;21.638;2023-08-20T02:08:34;100920.44;;;20.64
51693;BMP280;37777;53.066;21.638;2023-08-20T02:15:36;100939.88;;;20.39
51693;BMP280;37777;53.066;21.638;2023-08-20T02:22:39;100928.31;;;20.62
51693;BMP280;37777;53.066;21.638;2023-08-20T02:29:41;100927.50;;;20.65
51693;BMP280;37777;53.066;21.638;2023-08-20T02:36:43;100924.41;;;20.59
51693;BMP280;37777;53.066;21.638;2023-08-20T02:43:45;100927.63;;;20.47
51693;BMP280;37777;53.066;21.638;2023-08-20T02:50:47;100925.41;;;20.28
51693;BMP280;37777;53.066;21.638;2023-08-20T02:57:49;100922.31;;;20.22
51693;BMP280;37777;53.066;21.638;2023-08-20T03:04:51;100923.81;;;20.27
51693;BMP280;37777;53.066;21.638;2023-08-20T03:11:55;100922.31;;;20.22
51693;BMP280;37777;53.066;21.638;2023-08-20T03:18:57;100921.53;;;20.18
51693;BMP280;37777;53.066;21.638;2023-08-20T03:25:59;100920.72;;;20.17
51693;BMP280;37777;53.066;21.638;2023-08-20T03:33:01;100928.25;;;20.10
51693;BMP280;37777;53.066;21.638;2023-08-20T03:40:03;100921.59;;;20.03
51693;BMP280;37777;53.066;21.638;2023-08-20T03:47:06;100937.31;;;19.99
51693;BMP280;37777;53.066;21.638;2023-08-20T03:54:10;100927.03;;;20.18
51693;BMP280;37777;53.066;21.638;2023-08-20T04:01:12;100942.00;;;20.06
51693;BMP280;37777;53.066;21.638;2023-08-20T04:08:14;100937.97;;;20.29
51693;BMP280;37777;53.066;21.638;2023-08-20T04:15:16;100946.63;;;20.24
51693;BMP280;37777;53.066;21.638;2023-08-20T04:22:18;100948.06;;;20.50
51693;BMP280;37777;53.066;21.638;2023-08-20T04:29:20;100947.19;;;20.60
51693;BMP280;37777;53.066;21.638;2023-08-20T04:36:23;100942.69;;;20.84
51693;BMP280;37777;53.066;21.638;2023-08-20T04:43:25;100944.31;;;20.74
51693;BMP280;37777;53.066;21.638;2023-08-20T04:50:27;100949.59;;;20.99
51693;BMP280;37777;53.066;21.638;2023-08-20T04:57:29;100950.53;;;21.27
51693;BMP280;37777;53.066;21.638;2023-08-20T05:04:31;100956.03;;;21.31
51693;BMP280;37777;53.066;21.638;2023-08-20T05:11:33;100955.69;;;21.63
51693;BMP280;37777;53.066;21.638;2023-08-20T05:18:35;100953.97;;;21.76
51693;BMP280;37777;53.066;21.638;2023-08-20T05:25:37;100958.75;;;21.99
51693;BMP280;37777;53.066;21.638;2023-08-20T05:32:41;100958.09;;;22.19
51693;BMP280;37777;53.066;21.638;2023-08-20T05:39:44;100960.97;;;22.39
51693;BMP280;37777;53.066;21.638;2023-08-20T05:46:47;100957.16;;;22.56
51693;BMP280;37777;53.066;21.638;2023-08-20T05:53:49;100956.41;;;22.79
51693;BMP280;37777;53.066;21.638;2023-08-20T06:00:51;100944.38;;;22.90
51693;BMP280;37777;53.066;21.638;2023-08-20T06:07:53;100945.28;;;23.07
51693;BMP280;37777;53.066;21.638;2023-08-20T06:14:55;100962.69;;;23.24
51693;BMP280;37777;53.066;21.638;2023-08-20T06:21:58;100963.75;;;23.30
51693;BMP280;37777;53.066;21.638;2023-08-20T06:29:00;100969.59;;;23.55
51693;BMP280;37777;53.066;21.638;2023-08-20T06:36:02;100959.06;;;23.87
51693;BMP280;37777;53.066;21.638;2023-08-20T06:43:04;100979.31;;;24.00
51693;BMP280;37777;53.066;21.638;2023-08-20T06:50:07;100969.34;;;24.23
51693;BMP280;37777;53.066;21.638;2023-08-20T06:57:10;100976.69;;;24.29
51693;BMP280;37777;53.066;21.638;2023-08-20T07:04:13;100973.47;;;24.47
51693;BMP280;37777;53.066;21.638;2023-08-20T07:11:18;100978.59;;;24.65
51693;BMP280;37777;53.066;21.638;2023-08-20T07:18:23;100977.13;;;24.90
51693;BMP280;37777;53.066;21.638;2023-08-20T07:26:11;100973.63;;;25.18
51693;BMP280;37777;53.066;21.638;2023-08-20T07:33:16;100976.47;;;25.44
51693;BMP280;37777;53.066;21.638;2023-08-20T07:40:19;100971.97;;;25.63
51693;BMP280;37777;53.066;21.638;2023-08-20T07:47:21;100981.84;;;25.77
51693;BMP280;37777;53.066;21.638;2023-08-20T07:54:26;100976.97;;;25.94
51693;BMP280;37777;53.066;21.638;2023-08-20T08:01:29;100982.72;;;26.25
51693;BMP280;37777;53.066;21.638;2023-08-20T08:08:32;100981.25;;;26.46
51693;BMP280;37777;53.066;21.638;2023-08-20T08:15:34;100974.78;;;26.62
51693;BMP280;37777;53.066;21.638;2023-08-20T08:22:36;100977.06;;;26.76
51693;BMP280;37777;53.066;21.638;2023-08-20T08:29:38;100979.00;;;26.89
51693;BMP280;37777;53.066;21.638;2023-08-20T08:36:40;100969.06;;;27.00
51693;BMP280;37777;53.066;21.638;2023-08-20T08:43:42;100979.38;;;27.22
51693;BMP280;37777;53.066;21.638;2023-08-20T08:50:45;100978.34;;;27.28
51693;BMP280;37777;53.066;21.638;2023-08-20T08:57:47;100974.13;;;27.46
51693;BMP280;37777;53.066;21.638;2023-08-20T09:04:50;100971.00;;;27.66
51693;BMP280;37777;53.066;21.638;2023-08-20T09:11:57;100967.81;;;27.86
51693;BMP280;37777;53.066;21.638;2023-08-20T09:19:00;100971.28;;;27.99
51693;BMP280;37777;53.066;21.638;2023-08-20T09:26:04;100961.28;;;28.20
51693;BMP280;37777;53.066;21.638;2023-08-20T09:33:12;100950.78;;;28.24
51693;BMP280;37777;53.066;21.638;2023-08-20T09:40:18;100953.13;;;28.35
51693;BMP280;37777;53.066;21.638;2023-08-20T09:47:20;100962.09;;;28.48
51693;BMP280;37777;53.066;21.638;2023-08-20T10:01:56;100931.44;;;28.39
51693;BMP280;37777;53.066;21.638;2023-08-20T10:08:59;100930.53;;;28.61
51693;BMP280;37777;53.066;21.638;2023-08-20T10:16:02;100927.56;;;28.73
51693;BMP280;37777;53.066;21.638;2023-08-20T10:23:05;100924.50;;;29.23
51693;BMP280;37777;53.066;21.638;2023-08-20T10:30:13;100910.13;;;29.34
51693;BMP280;37777;53.066;21.638;2023-08-20T10:37:27;100902.44;;;29.44
51693;BMP280;37777;53.066;21.638;2023-08-20T10:45:01;100907.78;;;29.66
51693;BMP280;37777;53.066;21.638;2023-08-20T10:52:07;100898.28;;;29.72
51693;BMP280;37777;53.066;21.638;2023-08-20T10:59:30;100895.66;;;29.93
51693;BMP280;37777;53.066;21.638;2023-08-20T11:06:33;100887.53;;;30.04
51693;BMP280;37777;53.066;21.638;2023-08-20T11:13:35;100886.31;;;30.35
51693;BMP280;37777;53.066;21.638;2023-08-20T11:20:38;100882.28;;;29.97
51693;BMP280;37777;53.066;21.638;2023-08-20T11:27:41;100874.44;;;30.10
51693;BMP280;37777;53.066;21.638;2023-08-20T11:34:44;100867.88;;;30.37
51693;BMP280;37777;53.066;21.638;2023-08-20T11:49:14;100856.84;;;30.93
51693;BMP280;37777;53.066;21.638;2023-08-20T11:56:17;100853.94;;;31.02
51693;BMP280;37777;53.066;21.638;2023-08-20T12:03:20;100853.84;;;31.32
51693;BMP280;37777;53.066;21.638;2023-08-20T12:10:24;100849.91;;;31.24
51693;BMP280;37777;53.066;21.638;2023-08-20T12:17:29;100836.09;;;31.15
51693;BMP280;37777;53.066;21.638;2023-08-20T12:24:35;100844.25;;;30.98
51693;BMP280;37777;53.066;21.638;2023-08-20T12:31:40;100842.81;;;31.43
51693;BMP280;37777;53.066;21.638;2023-08-20T12:38:47;100832.22;;;31.68
51693;BMP280;37777;53.066;21.638;2023-08-20T12:45:56;100826.84;;;31.90
51693;BMP280;37777;53.066;21.638;2023-08-20T12:53:21;100825.13;;;31.52
51693;BMP280;37777;53.066;21.638;2023-08-20T13:00:28;100821.09;;;31.53
51693;BMP280;37777;53.066;21.638;2023-08-20T13:07:32;100827.66;;;31.29
51693;BMP280;37777;53.066;21.638;2023-08-20T13:14:35;100824.31;;;31.66
51693;BMP280;37777;53.066;21.638;2023-08-20T13:21:37;100833.00;;;31.94
51693;BMP280;37777;53.066;21.638;2023-08-20T13:28:40;100812.81;;;31.85
51693;BMP280;37777;53.066;21.638;2023-08-20T13:35:42;100813.31;;;31.63
51693;BMP280;37777;53.066;21.638;2023-08-20T13:42:47;100814.13;;;31.89
51693;BMP280;37777;53.066;21.638;2023-08-20T13:49:50;100803.88;;;32.07
51693;BMP280;37777;53.066;21.638;2023-08-20T13:56:52;100801.84;;;32.07
51693;BMP280;37777;53.066;21.638;2023-08-20T14:03:55;100796.56;;;32.15
51693;BMP280;37777;53.066;21.638;2023-08-20T14:11:00;100786.38;;;32.12
51693;BMP280;37777;53.066;21.638;2023-08-20T14:18:06;100780.31;;;32.19
51693;BMP280;37777;53.066;21.638;2023-08-20T14:25:12;100787.44;;;32.20
51693;BMP280;37777;53.066;21.638;2023-08-20T14:32:17;100781.00;;;31.82
51693;BMP280;37777;53.066;21.638;2023-08-20T14:39:21;100781.66;;;31.97
51693;BMP280;37777;53.066;21.638;2023-08-20T14:46:24;100778.25;;;31.62
51693;BMP280;37777;53.066;21.638;2023-08-20T14:53:26;100788.75;;;31.46
51693;BMP280;37777;53.066;21.638;2023-08-20T15:00:28;100784.63;;;31.62
51693;BMP280;37777;53.066;21.638;2023-08-20T15:07:31;100777.41;;;31.56
51693;BMP280;37777;53.066;21.638;2023-08-20T15:14:33;100777.56;;;31.26
51693;BMP280;37777;53.066;21.638;2023-08-20T15:21:36;100781.53;;;31.19
51693;BMP280;37777;53.066;21.638;2023-08-20T15:28:38;100767.94;;;31.27
51693;BMP280;37777;53.066;21.638;2023-08-20T15:35:41;100761.56;;;31.47
51693;BMP280;37777;53.066;21.638;2023-08-20T15:42:44;100776.22;;;31.42
51693;BMP280;37777;53.066;21.638;2023-08-20T15:49:49;100771.69;;;31.24
51693;BMP280;37777;53.066;21.638;2023-08-20T15:56:51;100765.53;;;30.99
51693;BMP280;37777;53.066;21.638;2023-08-20T16:03:54;100761.34;;;30.89
51693;BMP280;37777;53.066;21.638;2023-08-20T16:10:56;100762.47;;;30.62
51693;BMP280;37777;53.066;21.638;2023-08-20T16:17:59;100772.88;;;30.46
51693;BMP280;37777;53.066;21.638;2023-08-20T16:25:01;100768.63;;;30.51
51693;BMP280;37777;53.066;21.638;2023-08-20T16:32:08;100774.72;;;30.85
51693;BMP280;37777;53.066;21.638;2023-08-20T16:39:10;100783.72;;;30.74
51693;BMP280;37777;53.066;21.638;2023-08-20T16:46:13;100794.22;;;30.50
51693;BMP280;37777;53.066;21.638;2023-08-20T16:53:15;100798.19;;;30.28
51693;BMP280;37777;53.066;21.638;2023-08-20T17:00:18;100806.84;;;30.15
51693;BMP280;37777;53.066;21.638;2023-08-20T17:07:21;100812.50;;;30.06
51693;BMP280;37777;53.066;21.638;2023-08-20T17:14:23;100809.69;;;29.91
51693;BMP280;37777;53.066;21.638;2023-08-20T17:21:27;100815.91;;;29.71
51693;BMP280;37777;53.066;21.638;2023-08-20T17:28:30;100822.72;;;29.46
51693;BMP280;37777;53.066;21.638;2023-08-20T17:35:33;100818.00;;;29.28
51693;BMP280;37777;53.066;21.638;2023-08-20T17:42:37;100807.28;;;29.12
51693;BMP280;37777;53.066;21.638;2023-08-20T17:49:40;100807.22;;;28.97
51693;BMP280;37777;53.066;21.638;2023-08-20T17:56:43;100819.50;;;28.72
51693;BMP280;37777;53.066;21.638;2023-08-20T18:03:45;100816.47;;;28.51
51693;BMP280;37777;53.066;21.638;2023-08-20T18:10:48;100832.41;;;28.32
51693;BMP280;37777;53.066;21.638;2023-08-20T18:17:55;100839.34;;;28.19
51693;BMP280;37777;53.066;21.638;2023-08-20T18:24:57;100838.44;;;28.03
51693;BMP280;37777;53.066;21.638;2023-08-20T18:32:02;100852.00;;;27.92
51693;BMP280;37777;53.066;21.638;2023-08-20T18:39:05;100854.13;;;27.60
51693;BMP280;37777;53.066;21.638;2023-08-20T18:46:11;100858.34;;;27.34
51693;BMP280;37777;53.066;21.638;2023-08-20T18:53:14;100872.81;;;27.28
51693;BMP280;37777;53.066;21.638;2023-08-20T19:00:18;100871.94;;;27.10
51693;BMP280;37777;53.066;21.638;2023-08-20T19:07:20;100870.78;;;27.20
51693;BMP280;37777;53.066;21.638;2023-08-20T19:14:24;100873.72;;;27.25
51693;BMP280;37777;53.066;21.638;2023-08-20T19:21:27;100884.22;;;27.21
51693;BMP280;37777;53.066;21.638;2023-08-20T19:28:30;100898.81;;;27.13
51693;BMP280;37777;53.066;21.638;2023-08-20T19:35:33;100912.81;;;27.09
51693;BMP280;37777;53.066;21.638;2023-08-20T19:42:38;100919.09;;;27.00
51693;BMP280;37777;53.066;21.638;2023-08-20T19:49:42;100930.97;;;27.01
51693;BMP280;37777;53.066;21.638;2023-08-20T19:56:45;100924.66;;;27.00
51693;BMP280;37777;53.066;21.638;2023-08-20T20:03:50;100928.03;;;26.95
51693;BMP280;37777;53.066;21.638;2023-08-20T20:10:55;100945.34;;;26.86
51693;BMP280;37777;53.066;21.638;2023-08-20T20:17:59;100941.31;;;26.78
51693;BMP280;37777;53.066;21.638;2023-08-20T20:25:02;100934.13;;;26.68
51693;BMP280;37777;53.066;21.638;2023-08-20T20:32:07;100930.44;;;26.49
51693;BMP280;37777;53.066;21.638;2023-08-20T20:39:13;100926.16;;;26.35
51693;BMP280;37777;53.066;21.638;2023-08-20T20:46:21;100930.16;;;26.21
51693;BMP280;37777;53.066;21.638;2023-08-20T20:53:26;100929.47;;;26.30
51693;BMP280;37777;53.066;21.638;2023-08-20T21:00:29;100940.88;;;26.45
51693;BMP280;37777;53.066;21.638;2023-08-20T21:07:31;100936.59;;;26.31
51693;BMP280;37777;53.066;21.638;2023-08-20T21:14:34;100935.63;;;26.12
51693;BMP280;37777;53.066;21.638;2023-08-20T21:21:39;100938.84;;;25.98
51693;BMP280;37777;53.066;21.638;2023-08-20T21:28:42;100948.72;;;25.73
51693;BMP280;37777;53.066;21.638;2023-08-20T21:35:47;100939.78;;;25.40
51693;BMP280;37777;53.066;21.638;2023-08-20T21:42:51;100948.97;;;25.37
51693;BMP280;37777;53.066;21.638;2023-08-20T21:49:53;100954.50;;;25.37
51693;BMP280;37777;53.066;21.638;2023-08-20T21:56:56;100953.16;;;25.29
51693;BMP280;37777;53.066;21.638;2023-08-20T22:03:59;100945.69;;;25.13
51693;BMP280;37777;53.066;21.638;2023-08-20T22:11:02;100949.09;;;25.04
51693;BMP280;37777;53.066;21.638;2023-08-20T22:18:04;100940.75;;;24.91
51693;BMP280;37777;53.066;21.638;2023-08-20T22:25:11;100944.38;;;24.88
51693;BMP280;37777;53.066;21.638;2023-08-20T22:32:14;100963.03;;;24.55
51693;BMP280;37777;53.066;21.638;2023-08-20T22:39:17;100955.22;;;24.50
51693;BMP280;37777;53.066;21.638;2023-08-20T22:46:23;100957.72;;;24.60
51693;BMP280;37777;53.066;21.638;2023-08-20T22:53:25;100957.22;;;24.33
51693;BMP280;37777;53.066;21.638;2023-08-20T23:00:28;100953.53;;;24.39
51693;BMP280;37777;53.066;21.638;2023-08-20T23:07:31;100948.50;;;24.34
51693;BMP280;37777;53.066;21.638;2023-08-20T23:14:33;100954.06;;;23.98
51693;BMP280;37777;53.066;21.638;2023-08-20T23:21:35;100943.00;;;23.98
51693;BMP280;37777;53.066;21.638;2023-08-20T23:28:38;100938.25;;;23.82
51693;BMP280;37777;53.066;21.638;2023-08-20T23:35:40;100938.25;;;23.82
51693;BMP280;37777;53.066;21.638;2023-08-20T23:42:42;100945.84;;;23.94
51693;BMP280;37777;53.066;21.638;2023-08-20T23:49:44;100942.28;;;24.14
51693;BMP280;37777;53.066;21.638;2023-08-20T23:56:46;100935.34;;;24.06
